sensor_id;sensor_type;location;lat;lon;timestamp;temperature;humidity
41694;DHT22;27377;50.666;9.150;2023-03-24T00:02:26;11.70;99.90
41694;DHT22;27377;50.666;9.150;2023-03-24T00:04:53;11.80;99.90
41694;DHT22;27377;50.666;9.150;2023-03-24T00:07:25;11.70;99.90
41694;DHT22;27377;50.666;9.150;2023-03-24T00:09:54;11.70;99.90
41694;DHT22;27377;50.666;9.150;2023-03-24T00:12:20;11.70;99.90
41694;DHT22;27377;50.666;9.150;2023-03-24T00:14:46;11.70;99.90
41694;DHT22;27377;50.666;9.150;2023-03-24T00:17:11;11.70;99.90
41694;DHT22;27377;50.666;9.150;2023-03-24T00:19:39;11.70;99.90
41694;DHT22;27377;50.666;9.150;2023-03-24T00:22:09;11.70;99.90
41694;DHT22;27377;50.666;9.150;2023-03-24T00:24:39;11.70;99.90
41694;DHT22;27377;50.666;9.150;2023-03-24T00:27:05;11.70;99.90
41694;DHT22;27377;50.666;9.150;2023-03-24T00:29:31;11.70;99.90
41694;DHT22;27377;50.666;9.150;2023-03-24T00:31:58;11.70;99.90
41694;DHT22;27377;50.666;9.150;2023-03-24T00:34:24;11.70;99.90
41694;DHT22;27377;50.666;9.150;2023-03-24T00:36:50;11.70;99.90
41694;DHT22;27377;50.666;9.150;2023-03-24T00:39:20;11.60;99.90
41694;DHT22;27377;50.666;9.150;2023-03-24T00:41:46;11.60;99.90
41694;DHT22;27377;50.666;9.150;2023-03-24T00:44:14;11.60;99.90
41694;DHT22;27377;50.666;9.150;2023-03-24T00:46:47;11.70;99.90
41694;DHT22;27377;50.666;9.150;2023-03-24T00:49:29;11.70;99.90
41694;DHT22;27377;50.666;9.150;2023-03-24T00:52:09;11.70;99.90
41694;DHT22;27377;50.666;9.150;2023-03-24T00:54:36;11.60;99.90
41694;DHT22;27377;50.666;9.150;2023-03-24T00:57:02;11.70;99.90
41694;DHT22;27377;50.666;9.150;2023-03-24T00:59:28;11.60;99.90
41694;DHT22;27377;50.666;9.150;2023-03-24T01:01:54;11.60;99.90
41694;DHT22;27377;50.666;9.150;2023-03-24T01:04:23;11.60;99.90
41694;DHT22;27377;50.666;9.150;2023-03-24T01:06:51;11.60;99.90
41694;DHT22;27377;50.666;9.150;2023-03-24T01:09:18;11.60;99.90
41694;DHT22;27377;50.666;9.150;2023-03-24T01:11:46;11.60;99.90
41694;DHT22;27377;50.666;9.150;2023-03-24T01:14:12;11.60;99.90
41694;DHT22;27377;50.666;9.150;2023-03-24T01:16:38;11.60;99.90
41694;DHT22;27377;50.666;9.150;2023-03-24T01:19:04;11.60;99.90
41694;DHT22;27377;50.666;9.150;2023-03-24T01:21:29;11.60;99.90
41694;DHT22;27377;50.666;9.150;2023-03-24T01:23:56;11.60;99.90
41694;DHT22;27377;50.666;9.150;2023-03-24T01:26:22;11.60;99.90
41694;DHT22;27377;50.666;9.150;2023-03-24T01:28:47;11.60;99.90
41694;DHT22;27377;50.666;9.150;2023-03-24T01:31:13;11.60;99.90
41694;DHT22;27377;50.666;9.150;2023-03-24T01:33:38;11.60;99.90
41694;DHT22;27377;50.666;9.150;2023-03-24T01:36:05;11.60;99.90
41694;DHT22;27377;50.666;9.150;2023-03-24T01:38:31;11.60;99.90
41694;DHT22;27377;50.666;9.150;2023-03-24T01:40:57;11.60;99.90
41694;DHT22;27377;50.666;9.150;2023-03-24T01:43:26;11.60;99.90
41694;DHT22;27377;50.666;9.150;2023-03-24T01:46:05;11.60;99.90
41694;DHT22;27377;50.666;9.150;2023-03-24T01:48:37;11.60;99.90
41694;DHT22;27377;50.666;9.150;2023-03-24T01:53:42;11.60;99.90
41694;DHT22;27377;50.666;9.150;2023-03-24T01:56:09;11.60;99.90
41694;DHT22;27377;50.666;9.150;2023-03-24T01:58:38;11.60;99.90
41694;DHT22;27377;50.666;9.150;2023-03-24T02:01:04;11.60;99.90
41694;DHT22;27377;50.666;9.150;2023-03-24T02:03:31;11.60;99.90
41694;DHT22;27377;50.666;9.150;2023-03-24T02:05:59;11.60;99.90
41694;DHT22;27377;50.666;9.150;2023-03-24T02:11:33;11.50;99.90
41694;DHT22;27377;50.666;9.150;2023-03-24T02:14:00;11.50;99.90
41694;DHT22;27377;50.666;9.150;2023-03-24T02:16:36;11.60;99.90
41694;DHT22;27377;50.666;9.150;2023-03-24T02:19:34;11.50;99.90
41694;DHT22;27377;50.666;9.150;2023-03-24T02:22:43;11.60;99.90
41694;DHT22;27377;50.666;9.150;2023-03-24T02:28:14;11.50;99.90
41694;DHT22;27377;50.666;9.150;2023-03-24T02:31:15;11.60;99.90
41694;DHT22;27377;50.666;9.150;2023-03-24T02:33:56;11.60;99.90
41694;DHT22;27377;50.666;9.150;2023-03-24T02:36:36;11.60;99.90
41694;DHT22;27377;50.666;9.150;2023-03-24T02:39:25;11.60;99.90
41694;DHT22;27377;50.666;9.150;2023-03-24T02:47:49;11.60;99.90
41694;DHT22;27377;50.666;9.150;2023-03-24T02:50:27;11.60;99.90
41694;DHT22;27377;50.666;9.150;2023-03-24T02:53:07;11.60;99.90
41694;DHT22;27377;50.666;9.150;2023-03-24T02:55:43;11.60;99.90
41694;DHT22;27377;50.666;9.150;2023-03-24T02:58:16;11.60;99.90
41694;DHT22;27377;50.666;9.150;2023-03-24T03:00:57;11.60;99.90
41694;DHT22;27377;50.666;9.150;2023-03-24T03:04:01;11.60;99.90
41694;DHT22;27377;50.666;9.150;2023-03-24T03:06:29;11.60;99.90
41694;DHT22;27377;50.666;9.150;2023-03-24T03:09:00;11.60;99.90
41694;DHT22;27377;50.666;9.150;2023-03-24T03:11:27;11.60;99.90
41694;DHT22;27377;50.666;9.150;2023-03-24T03:14:02;11.60;99.90
41694;DHT22;27377;50.666;9.150;2023-03-24T03:16:36;11.60;99.90
41694;DHT22;27377;50.666;9.150;2023-03-24T03:19:23;11.60;99.90
41694;DHT22;27377;50.666;9.150;2023-03-24T03:21:51;11.60;99.90
41694;DHT22;27377;50.666;9.150;2023-03-24T03:24:21;11.60;99.90
41694;DHT22;27377;50.666;9.150;2023-03-24T03:27:00;11.60;99.90
41694;DHT22;27377;50.666;9.150;2023-03-24T03:29:30;11.70;99.90
41694;DHT22;27377;50.666;9.150;2023-03-24T03:32:01;11.60;99.90
41694;DHT22;27377;50.666;9.150;2023-03-24T03:34:49;11.60;99.90
41694;DHT22;27377;50.666;9.150;2023-03-24T03:37:38;11.60;99.90
41694;DHT22;27377;50.666;9.150;2023-03-24T03:40:09;11.60;99.90
41694;DHT22;27377;50.666;9.150;2023-03-24T03:42:37;11.60;99.90
41694;DHT22;27377;50.666;9.150;2023-03-24T03:45:03;11.60;99.90
41694;DHT22;27377;50.666;9.150;2023-03-24T03:47:30;11.60;99.90
41694;DHT22;27377;50.666;9.150;2023-03-24T03:49:55;11.60;99.90
41694;DHT22;27377;50.666;9.150;2023-03-24T03:52:21;11.60;99.90
41694;DHT22;27377;50.666;9.150;2023-03-24T03:54:47;11.60;99.90
41694;DHT22;27377;50.666;9.150;2023-03-24T03:57:13;11.60;99.90
41694;DHT22;27377;50.666;9.150;2023-03-24T03:59:39;11.60;99.90
41694;DHT22;27377;50.666;9.150;2023-03-24T04:05:16;11.60;99.90
41694;DHT22;27377;50.666;9.150;2023-03-24T04:08:13;11.60;99.90
41694;DHT22;27377;50.666;9.150;2023-03-24T04:16:41;11.70;99.90
41694;DHT22;27377;50.666;9.150;2023-03-24T04:19:40;11.70;99.90
41694;DHT22;27377;50.666;9.150;2023-03-24T04:22:36;11.70;99.90
41694;DHT22;27377;50.666;9.150;2023-03-24T04:30:39;11.70;99.90
41694;DHT22;27377;50.666;9.150;2023-03-24T04:33:14;11.70;99.90
41694;DHT22;27377;50.666;9.150;2023-03-24T04:35:46;11.70;99.90
41694;DHT22;27377;50.666;9.150;2023-03-24T04:38:17;11.60;99.90
41694;DHT22;27377;50.666;9.150;2023-03-24T04:40:49;11.70;99.90
41694;DHT22;27377;50.666;9.150;2023-03-24T04:43:18;11.70;99.90
41694;DHT22;27377;50.666;9.150;2023-03-24T04:45:45;11.60;99.90
41694;DHT22;27377;50.666;9.150;2023-03-24T04:48:15;11.70;99.90
41694;DHT22;27377;50.666;9.150;2023-03-24T04:50:46;11.70;99.90
41694;DHT22;27377;50.666;9.150;2023-03-24T04:53:12;11.70;99.90
41694;DHT22;27377;50.666;9.150;2023-03-24T04:58:40;11.60;99.90
41694;DHT22;27377;50.666;9.150;2023-03-24T05:01:06;11.60;99.90
41694;DHT22;27377;50.666;9.150;2023-03-24T05:03:33;11.60;99.90
41694;DHT22;27377;50.666;9.150;2023-03-24T05:06:03;11.70;99.90
41694;DHT22;27377;50.666;9.150;2023-03-24T05:08:30;11.60;99.90
41694;DHT22;27377;50.666;9.150;2023-03-24T05:10:56;11.70;99.90
41694;DHT22;27377;50.666;9.150;2023-03-24T05:13:22;11.60;99.90
41694;DHT22;27377;50.666;9.150;2023-03-24T05:15:47;11.70;99.90
41694;DHT22;27377;50.666;9.150;2023-03-24T05:18:13;11.60;99.90
41694;DHT22;27377;50.666;9.150;2023-03-24T05:20:39;11.60;99.90
41694;DHT22;27377;50.666;9.150;2023-03-24T05:23:04;11.70;99.90
41694;DHT22;27377;50.666;9.150;2023-03-24T05:25:31;11.70;99.90
41694;DHT22;27377;50.666;9.150;2023-03-24T05:27:57;11.60;99.90
41694;DHT22;27377;50.666;9.150;2023-03-24T05:30:23;11.70;99.90
41694;DHT22;27377;50.666;9.150;2023-03-24T05:32:48;11.60;99.90
41694;DHT22;27377;50.666;9.150;2023-03-24T05:35:14;11.70;99.90
41694;DHT22;27377;50.666;9.150;2023-03-24T05:37:40;11.60;99.90
41694;DHT22;27377;50.666;9.150;2023-03-24T05:40:06;11.60;99.90
41694;DHT22;27377;50.666;9.150;2023-03-24T05:42:32;11.70;99.90
41694;DHT22;27377;50.666;9.150;2023-03-24T05:44:57;11.60;99.90
41694;DHT22;27377;50.666;9.150;2023-03-24T05:47:23;11.60;99.90
41694;DHT22;27377;50.666;9.150;2023-03-24T05:49:49;11.60;99.90
41694;DHT22;27377;50.666;9.150;2023-03-24T05:52:16;11.60;99.90
41694;DHT22;27377;50.666;9.150;2023-03-24T05:54:42;11.60;99.90
41694;DHT22;27377;50.666;9.150;2023-03-24T05:57:14;11.60;99.90
41694;DHT22;27377;50.666;9.150;2023-03-24T05:59:40;11.60;99.90
41694;DHT22;27377;50.666;9.150;2023-03-24T06:02:06;11.60;99.90
41694;DHT22;27377;50.666;9.150;2023-03-24T06:04:32;11.60;99.90
41694;DHT22;27377;50.666;9.150;2023-03-24T06:06:58;11.60;99.90
41694;DHT22;27377;50.666;9.150;2023-03-24T06:09:29;11.60;99.90
41694;DHT22;27377;50.666;9.150;2023-03-24T06:11:58;11.60;99.90
41694;DHT22;27377;50.666;9.150;2023-03-24T06:14:23;11.60;99.90
41694;DHT22;27377;50.666;9.150;2023-03-24T06:16:49;11.60;99.90
41694;DHT22;27377;50.666;9.150;2023-03-24T06:19:15;11.60;99.90
41694;DHT22;27377;50.666;9.150;2023-03-24T06:21:42;11.60;99.90
41694;DHT22;27377;50.666;9.150;2023-03-24T06:24:09;11.60;99.90
41694;DHT22;27377;50.666;9.150;2023-03-24T06:26:39;11.60;99.90
41694;DHT22;27377;50.666;9.150;2023-03-24T06:29:09;11.60;99.90
41694;DHT22;27377;50.666;9.150;2023-03-24T06:31:35;11.60;99.90
41694;DHT22;27377;50.666;9.150;2023-03-24T06:34:02;11.60;99.90
41694;DHT22;27377;50.666;9.150;2023-03-24T06:36:29;11.70;99.90
41694;DHT22;27377;50.666;9.150;2023-03-24T06:38:54;11.70;99.90
41694;DHT22;27377;50.666;9.150;2023-03-24T06:41:21;11.70;99.90
41694;DHT22;27377;50.666;9.150;2023-03-24T06:43:47;11.70;99.90
41694;DHT22;27377;50.666;9.150;2023-03-24T06:46:13;11.70;99.90
41694;DHT22;27377;50.666;9.150;2023-03-24T06:48:38;11.70;99.90
41694;DHT22;27377;50.666;9.150;2023-03-24T06:51:04;11.70;99.90
41694;DHT22;27377;50.666;9.150;2023-03-24T06:53:30;11.80;99.90
41694;DHT22;27377;50.666;9.150;2023-03-24T06:55:56;11.80;99.90
41694;DHT22;27377;50.666;9.150;2023-03-24T06:58:21;11.80;99.90
41694;DHT22;27377;50.666;9.150;2023-03-24T07:00:47;11.80;99.90
41694;DHT22;27377;50.666;9.150;2023-03-24T07:03:15;11.80;99.90
41694;DHT22;27377;50.666;9.150;2023-03-24T07:05:42;11.90;99.90
41694;DHT22;27377;50.666;9.150;2023-03-24T07:08:08;11.80;99.90
41694;DHT22;27377;50.666;9.150;2023-03-24T07:10:35;11.90;99.90
41694;DHT22;27377;50.666;9.150;2023-03-24T07:13:01;11.90;99.90
41694;DHT22;27377;50.666;9.150;2023-03-24T07:15:28;11.90;99.90
41694;DHT22;27377;50.666;9.150;2023-03-24T07:17:54;11.90;99.90
41694;DHT22;27377;50.666;9.150;2023-03-24T07:20:20;11.90;99.90
41694;DHT22;27377;50.666;9.150;2023-03-24T07:22:46;11.90;99.90
41694;DHT22;27377;50.666;9.150;2023-03-24T07:25:12;11.90;99.90
41694;DHT22;27377;50.666;9.150;2023-03-24T07:27:39;11.90;99.90
41694;DHT22;27377;50.666;9.150;2023-03-24T07:30:06;12.00;99.90
41694;DHT22;27377;50.666;9.150;2023-03-24T07:32:32;12.00;99.90
41694;DHT22;27377;50.666;9.150;2023-03-24T07:35:00;12.00;99.90
41694;DHT22;27377;50.666;9.150;2023-03-24T07:37:27;12.00;99.90
41694;DHT22;27377;50.666;9.150;2023-03-24T07:39:52;12.10;99.90
41694;DHT22;27377;50.666;9.150;2023-03-24T07:42:18;12.00;99.90
41694;DHT22;27377;50.666;9.150;2023-03-24T07:44:44;12.00;99.90
41694;DHT22;27377;50.666;9.150;2023-03-24T07:47:09;12.10;99.90
41694;DHT22;27377;50.666;9.150;2023-03-24T07:49:35;12.00;99.90
41694;DHT22;27377;50.666;9.150;2023-03-24T07:52:01;12.10;99.90
41694;DHT22;27377;50.666;9.150;2023-03-24T07:54:30;12.00;99.90
41694;DHT22;27377;50.666;9.150;2023-03-24T07:56:58;12.10;99.90
41694;DHT22;27377;50.666;9.150;2023-03-24T07:59:24;12.10;99.90
41694;DHT22;27377;50.666;9.150;2023-03-24T08:01:50;12.10;99.90
41694;DHT22;27377;50.666;9.150;2023-03-24T08:04:16;12.10;99.90
41694;DHT22;27377;50.666;9.150;2023-03-24T08:06:42;12.10;99.90
41694;DHT22;27377;50.666;9.150;2023-03-24T08:09:08;12.10;99.90
41694;DHT22;27377;50.666;9.150;2023-03-24T08:11:35;12.10;99.90
41694;DHT22;27377;50.666;9.150;2023-03-24T08:14:01;12.10;99.90
41694;DHT22;27377;50.666;9.150;2023-03-24T08:16:27;12.20;99.90
41694;DHT22;27377;50.666;9.150;2023-03-24T08:18:52;12.20;99.90
41694;DHT22;27377;50.666;9.150;2023-03-24T08:21:23;12.20;99.90
41694;DHT22;27377;50.666;9.150;2023-03-24T08:23:48;12.30;99.90
41694;DHT22;27377;50.666;9.150;2023-03-24T08:26:14;12.20;99.90
41694;DHT22;27377;50.666;9.150;2023-03-24T08:28:40;12.30;99.90
41694;DHT22;27377;50.666;9.150;2023-03-24T08:31:06;12.30;99.90
41694;DHT22;27377;50.666;9.150;2023-03-24T08:33:32;12.30;99.90
41694;DHT22;27377;50.666;9.150;2023-03-24T08:35:58;12.30;99.90
41694;DHT22;27377;50.666;9.150;2023-03-24T08:38:25;12.40;99.90
41694;DHT22;27377;50.666;9.150;2023-03-24T08:40:59;12.40;99.90
41694;DHT22;27377;50.666;9.150;2023-03-24T08:43:27;12.40;99.90
41694;DHT22;27377;50.666;9.150;2023-03-24T08:45:57;12.40;99.90
41694;DHT22;27377;50.666;9.150;2023-03-24T08:48:23;12.40;99.90
41694;DHT22;27377;50.666;9.150;2023-03-24T08:50:49;12.40;99.90
41694;DHT22;27377;50.666;9.150;2023-03-24T08:53:15;12.30;99.90
41694;DHT22;27377;50.666;9.150;2023-03-24T08:55:41;12.20;99.90
41694;DHT22;27377;50.666;9.150;2023-03-24T08:58:14;12.00;99.90
41694;DHT22;27377;50.666;9.150;2023-03-24T09:00:41;11.90;99.90
41694;DHT22;27377;50.666;9.150;2023-03-24T09:03:11;11.70;99.90
41694;DHT22;27377;50.666;9.150;2023-03-24T09:05:37;11.50;99.90
41694;DHT22;27377;50.666;9.150;2023-03-24T09:08:03;11.40;99.90
41694;DHT22;27377;50.666;9.150;2023-03-24T09:10:28;11.20;99.90
41694;DHT22;27377;50.666;9.150;2023-03-24T09:12:54;11.10;99.90
41694;DHT22;27377;50.666;9.150;2023-03-24T09:15:20;11.00;99.90
41694;DHT22;27377;50.666;9.150;2023-03-24T09:17:46;11.00;99.90
41694;DHT22;27377;50.666;9.150;2023-03-24T09:20:13;10.90;99.90
41694;DHT22;27377;50.666;9.150;2023-03-24T09:22:41;10.90;99.90
41694;DHT22;27377;50.666;9.150;2023-03-24T09:25:08;10.90;99.90
41694;DHT22;27377;50.666;9.150;2023-03-24T09:27:35;10.90;99.90
41694;DHT22;27377;50.666;9.150;2023-03-24T09:30:01;10.90;99.90
41694;DHT22;27377;50.666;9.150;2023-03-24T09:32:27;10.90;99.90
41694;DHT22;27377;50.666;9.150;2023-03-24T09:34:53;10.90;99.90
41694;DHT22;27377;50.666;9.150;2023-03-24T09:37:18;10.80;99.90
41694;DHT22;27377;50.666;9.150;2023-03-24T09:39:44;10.90;99.90
41694;DHT22;27377;50.666;9.150;2023-03-24T09:42:22;10.90;99.90
41694;DHT22;27377;50.666;9.150;2023-03-24T09:44:53;10.90;99.90
41694;DHT22;27377;50.666;9.150;2023-03-24T09:47:34;10.90;99.90
41694;DHT22;27377;50.666;9.150;2023-03-24T09:50:05;10.90;99.90
41694;DHT22;27377;50.666;9.150;2023-03-24T09:52:35;10.90;99.90
41694;DHT22;27377;50.666;9.150;2023-03-24T09:55:02;10.90;99.90
41694;DHT22;27377;50.666;9.150;2023-03-24T09:57:39;10.90;99.90
41694;DHT22;27377;50.666;9.150;2023-03-24T10:00:26;10.90;99.90
41694;DHT22;27377;50.666;9.150;2023-03-24T10:02:52;10.90;99.90
41694;DHT22;27377;50.666;9.150;2023-03-24T10:05:40;10.90;99.90
41694;DHT22;27377;50.666;9.150;2023-03-24T10:08:16;10.90;99.90
41694;DHT22;27377;50.666;9.150;2023-03-24T10:11:14;10.90;99.90
41694;DHT22;27377;50.666;9.150;2023-03-24T10:16:33;10.90;99.90
41694;DHT22;27377;50.666;9.150;2023-03-24T10:24:54;10.80;99.90
41694;DHT22;27377;50.666;9.150;2023-03-24T10:27:33;10.80;99.90
41694;DHT22;27377;50.666;9.150;2023-03-24T10:30:07;10.90;99.90
41694;DHT22;27377;50.666;9.150;2023-03-24T10:32:36;10.90;99.90
41694;DHT22;27377;50.666;9.150;2023-03-24T10:35:04;10.90;99.90
41694;DHT22;27377;50.666;9.150;2023-03-24T10:37:35;10.90;99.90
41694;DHT22;27377;50.666;9.150;2023-03-24T10:40:02;10.90;99.90
41694;DHT22;27377;50.666;9.150;2023-03-24T10:42:32;10.90;99.90
41694;DHT22;27377;50.666;9.150;2023-03-24T10:44:59;10.80;99.90
41694;DHT22;27377;50.666;9.150;2023-03-24T10:47:29;10.80;99.90
41694;DHT22;27377;50.666;9.150;2023-03-24T10:50:00;10.80;99.90
41694;DHT22;27377;50.666;9.150;2023-03-24T10:52:26;10.80;99.90
41694;DHT22;27377;50.666;9.150;2023-03-24T10:55:03;10.80;99.90
41694;DHT22;27377;50.666;9.150;2023-03-24T10:57:30;10.70;99.90
41694;DHT22;27377;50.666;9.150;2023-03-24T11:00:00;10.80;99.90
41694;DHT22;27377;50.666;9.150;2023-03-24T11:02:34;10.80;99.90
41694;DHT22;27377;50.666;9.150;2023-03-24T11:05:12;10.80;99.90
41694;DHT22;27377;50.666;9.150;2023-03-24T11:07:47;10.80;99.90
41694;DHT22;27377;50.666;9.150;2023-03-24T11:10:16;10.80;99.90
41694;DHT22;27377;50.666;9.150;2023-03-24T11:13:03;10.80;99.90
41694;DHT22;27377;50.666;9.150;2023-03-24T11:15:34;10.80;99.90
41694;DHT22;27377;50.666;9.150;2023-03-24T11:20:49;10.80;99.90
41694;DHT22;27377;50.666;9.150;2023-03-24T11:23:25;10.80;99.90
41694;DHT22;27377;50.666;9.150;2023-03-24T11:26:03;10.80;99.90
41694;DHT22;27377;50.666;9.150;2023-03-24T11:28:38;10.80;99.90
41694;DHT22;27377;50.666;9.150;2023-03-24T11:31:07;10.90;99.90
41694;DHT22;27377;50.666;9.150;2023-03-24T11:33:39;10.90;99.90
41694;DHT22;27377;50.666;9.150;2023-03-24T11:39:03;10.90;99.90
41694;DHT22;27377;50.666;9.150;2023-03-24T11:41:35;10.90;99.90
41694;DHT22;27377;50.666;9.150;2023-03-24T11:44:16;10.90;99.90
41694;DHT22;27377;50.666;9.150;2023-03-24T11:46:44;10.90;99.90
41694;DHT22;27377;50.666;9.150;2023-03-24T11:49:12;10.90;99.90
41694;DHT22;27377;50.666;9.150;2023-03-24T11:51:41;10.90;99.90
41694;DHT22;27377;50.666;9.150;2023-03-24T11:54:12;10.90;99.90
41694;DHT22;27377;50.666;9.150;2023-03-24T11:56:44;10.80;99.90
41694;DHT22;27377;50.666;9.150;2023-03-24T11:59:41;10.80;99.90
41694;DHT22;27377;50.666;9.150;2023-03-24T12:05:09;10.80;99.90
41694;DHT22;27377;50.666;9.150;2023-03-24T12:08:07;10.80;99.90
41694;DHT22;27377;50.666;9.150;2023-03-24T12:10:54;10.80;99.90
41694;DHT22;27377;50.666;9.150;2023-03-24T12:13:46;10.80;99.90
41694;DHT22;27377;50.666;9.150;2023-03-24T12:16:33;10.90;99.90
41694;DHT22;27377;50.666;9.150;2023-03-24T12:22:28;10.90;99.90
41694;DHT22;27377;50.666;9.150;2023-03-24T12:32:55;11.10;99.90
41694;DHT22;27377;50.666;9.150;2023-03-24T12:35:36;11.10;99.90
41694;DHT22;27377;50.666;9.150;2023-03-24T12:46:48;11.30;99.90
41694;DHT22;27377;50.666;9.150;2023-03-24T12:52:19;11.40;99.90
41694;DHT22;27377;50.666;9.150;2023-03-24T12:57:31;11.50;99.90
41694;DHT22;27377;50.666;9.150;2023-03-24T13:00:02;11.50;99.90
41694;DHT22;27377;50.666;9.150;2023-03-24T13:02:54;11.50;99.90
41694;DHT22;27377;50.666;9.150;2023-03-24T13:05:26;11.50;99.90
41694;DHT22;27377;50.666;9.150;2023-03-24T13:07:56;11.50;99.90
41694;DHT22;27377;50.666;9.150;2023-03-24T13:10:26;11.50;99.90
41694;DHT22;27377;50.666;9.150;2023-03-24T13:15:36;11.60;99.90
41694;DHT22;27377;50.666;9.150;2023-03-24T13:26:03;11.70;99.90
41694;DHT22;27377;50.666;9.150;2023-03-24T13:28:37;11.70;99.90
41694;DHT22;27377;50.666;9.150;2023-03-24T13:31:06;11.70;99.90
41694;DHT22;27377;50.666;9.150;2023-03-24T13:33:35;11.80;99.90
41694;DHT22;27377;50.666;9.150;2023-03-24T13:36:09;11.80;99.90
41694;DHT22;27377;50.666;9.150;2023-03-24T13:38:42;11.90;99.90
41694;DHT22;27377;50.666;9.150;2023-03-24T13:41:15;11.90;99.90
41694;DHT22;27377;50.666;9.150;2023-03-24T13:43:49;11.90;99.90
41694;DHT22;27377;50.666;9.150;2023-03-24T13:46:16;11.90;99.90
41694;DHT22;27377;50.666;9.150;2023-03-24T13:48:50;12.00;99.90
41694;DHT22;27377;50.666;9.150;2023-03-24T13:51:24;12.00;99.90
41694;DHT22;27377;50.666;9.150;2023-03-24T13:53:54;12.10;99.90
41694;DHT22;27377;50.666;9.150;2023-03-24T13:56:24;12.10;99.90
41694;DHT22;27377;50.666;9.150;2023-03-24T13:59:19;12.10;99.90
41694;DHT22;27377;50.666;9.150;2023-03-24T14:02:39;12.20;99.90
41694;DHT22;27377;50.666;9.150;2023-03-24T14:10:49;12.30;99.90
41694;DHT22;27377;50.666;9.150;2023-03-24T14:15:45;12.40;99.90
41694;DHT22;27377;50.666;9.150;2023-03-24T14:23:46;12.60;99.90
41694;DHT22;27377;50.666;9.150;2023-03-24T14:28:49;12.60;99.90
41694;DHT22;27377;50.666;9.150;2023-03-24T14:36:32;12.60;99.90
41694;DHT22;27377;50.666;9.150;2023-03-24T14:41:45;12.60;99.90
41694;DHT22;27377;50.666;9.150;2023-03-24T14:47:24;12.70;99.90
41694;DHT22;27377;50.666;9.150;2023-03-24T14:49:54;12.70;99.90
41694;DHT22;27377;50.666;9.150;2023-03-24T14:52:34;12.70;99.90
41694;DHT22;27377;50.666;9.150;2023-03-24T14:55:09;12.80;99.90
41694;DHT22;27377;50.666;9.150;2023-03-24T14:57:47;12.80;99.90
41694;DHT22;27377;50.666;9.150;2023-03-24T15:03:35;12.80;99.90
41694;DHT22;27377;50.666;9.150;2023-03-24T15:06:14;12.80;99.90
41694;DHT22;27377;50.666;9.150;2023-03-24T15:08:51;12.80;99.90
41694;DHT22;27377;50.666;9.150;2023-03-24T15:11:35;12.80;99.90
41694;DHT22;27377;50.666;9.150;2023-03-24T15:14:03;12.80;99.90
41694;DHT22;27377;50.666;9.150;2023-03-24T15:16:32;12.80;99.90
41694;DHT22;27377;50.666;9.150;2023-03-24T15:19:07;12.80;99.90
41694;DHT22;27377;50.666;9.150;2023-03-24T15:21:45;12.80;99.90
41694;DHT22;27377;50.666;9.150;2023-03-24T15:26:45;12.80;99.90
41694;DHT22;27377;50.666;9.150;2023-03-24T15:29:10;12.80;99.90
41694;DHT22;27377;50.666;9.150;2023-03-24T15:31:36;12.90;99.90
41694;DHT22;27377;50.666;9.150;2023-03-24T15:34:33;12.90;99.90
41694;DHT22;27377;50.666;9.150;2023-03-24T15:37:04;12.90;99.90
41694;DHT22;27377;50.666;9.150;2023-03-24T15:39:34;13.00;99.90
41694;DHT22;27377;50.666;9.150;2023-03-24T15:42:04;13.10;99.90
41694;DHT22;27377;50.666;9.150;2023-03-24T15:44:38;13.10;99.90
41694;DHT22;27377;50.666;9.150;2023-03-24T15:49:56;13.10;99.90
41694;DHT22;27377;50.666;9.150;2023-03-24T15:54:47;13.10;99.90
41694;DHT22;27377;50.666;9.150;2023-03-24T15:57:18;13.10;99.90
41694;DHT22;27377;50.666;9.150;2023-03-24T16:00:12;13.10;99.90
41694;DHT22;27377;50.666;9.150;2023-03-24T16:02:54;13.10;99.90
41694;DHT22;27377;50.666;9.150;2023-03-24T16:05:25;13.10;99.90
41694;DHT22;27377;50.666;9.150;2023-03-24T16:12:51;13.00;99.90
41694;DHT22;27377;50.666;9.150;2023-03-24T16:15:17;13.00;99.90
41694;DHT22;27377;50.666;9.150;2023-03-24T16:17:43;13.00;99.90
41694;DHT22;27377;50.666;9.150;2023-03-24T16:20:18;13.10;99.90
41694;DHT22;27377;50.666;9.150;2023-03-24T16:22:43;13.10;99.90
41694;DHT22;27377;50.666;9.150;2023-03-24T16:25:11;13.10;99.90
41694;DHT22;27377;50.666;9.150;2023-03-24T16:27:37;13.10;99.90
41694;DHT22;27377;50.666;9.150;2023-03-24T16:30:19;13.20;99.90
41694;DHT22;27377;50.666;9.150;2023-03-24T16:32:49;13.20;99.90
41694;DHT22;27377;50.666;9.150;2023-03-24T16:35:14;13.20;99.90
41694;DHT22;27377;50.666;9.150;2023-03-24T16:37:40;13.20;99.90
41694;DHT22;27377;50.666;9.150;2023-03-24T16:40:36;13.20;99.90
41694;DHT22;27377;50.666;9.150;2023-03-24T16:43:03;13.20;99.90
41694;DHT22;27377;50.666;9.150;2023-03-24T16:45:30;13.10;99.90
41694;DHT22;27377;50.666;9.150;2023-03-24T16:47:57;13.10;99.90
41694;DHT22;27377;50.666;9.150;2023-03-24T16:50:29;13.10;99.90
41694;DHT22;27377;50.666;9.150;2023-03-24T16:52:55;13.10;99.90
41694;DHT22;27377;50.666;9.150;2023-03-24T16:55:20;13.10;99.90
41694;DHT22;27377;50.666;9.150;2023-03-24T16:57:46;13.10;99.90
41694;DHT22;27377;50.666;9.150;2023-03-24T17:00:12;13.10;99.90
41694;DHT22;27377;50.666;9.150;2023-03-24T17:02:38;13.00;99.90
41694;DHT22;27377;50.666;9.150;2023-03-24T17:05:34;13.00;99.90
41694;DHT22;27377;50.666;9.150;2023-03-24T17:08:02;12.90;99.90
41694;DHT22;27377;50.666;9.150;2023-03-24T17:10:27;12.90;99.90
41694;DHT22;27377;50.666;9.150;2023-03-24T17:12:54;12.90;99.90
41694;DHT22;27377;50.666;9.150;2023-03-24T17:15:28;12.80;99.90
41694;DHT22;27377;50.666;9.150;2023-03-24T17:17:54;12.80;99.90
41694;DHT22;27377;50.666;9.150;2023-03-24T17:20:24;12.70;99.90
41694;DHT22;27377;50.666;9.150;2023-03-24T17:22:53;12.70;99.90
41694;DHT22;27377;50.666;9.150;2023-03-24T17:25:20;12.70;99.90
41694;DHT22;27377;50.666;9.150;2023-03-24T17:27:49;12.60;99.90
41694;DHT22;27377;50.666;9.150;2023-03-24T17:30:18;12.60;99.90
41694;DHT22;27377;50.666;9.150;2023-03-24T17:32:44;12.60;99.90
41694;DHT22;27377;50.666;9.150;2023-03-24T17:35:12;12.60;99.90
41694;DHT22;27377;50.666;9.150;2023-03-24T17:37:38;12.60;99.90
41694;DHT22;27377;50.666;9.150;2023-03-24T17:40:04;12.50;99.90
41694;DHT22;27377;50.666;9.150;2023-03-24T17:42:36;12.50;99.90
41694;DHT22;27377;50.666;9.150;2023-03-24T17:45:03;12.50;99.90
41694;DHT22;27377;50.666;9.150;2023-03-24T17:47:29;12.50;99.90
41694;DHT22;27377;50.666;9.150;2023-03-24T17:49:55;12.50;99.90
41694;DHT22;27377;50.666;9.150;2023-03-24T17:52:21;12.50;99.90
41694;DHT22;27377;50.666;9.150;2023-03-24T17:54:47;12.50;99.90
41694;DHT22;27377;50.666;9.150;2023-03-24T17:57:12;12.40;99.90
41694;DHT22;27377;50.666;9.150;2023-03-24T17:59:38;12.40;99.90
41694;DHT22;27377;50.666;9.150;2023-03-24T18:02:05;12.40;99.90